sensor_id;sensor_type;location;lat;lon;timestamp;temperature;humidity
53053;DHT22;38934;52.690;6.184;2022-12-08T08:35:01;2.80;99.90
53053;DHT22;38934;52.690;6.184;2022-12-08T08:37:26;2.70;99.90
53053;DHT22;38934;52.690;6.184;2022-12-08T08:39:52;2.60;99.90
53053;DHT22;38934;52.690;6.184;2022-12-08T08:42:18;2.60;99.90
53053;DHT22;38934;52.690;6.184;2022-12-08T08:44:44;2.60;99.90
53053;DHT22;38934;52.690;6.184;2022-12-08T08:47:09;2.60;99.90
53053;DHT22;38934;52.690;6.184;2022-12-08T08:49:35;2.60;99.90
53053;DHT22;38934;52.690;6.184;2022-12-08T08:52:01;2.60;99.90
53053;DHT22;38934;52.690;6.184;2022-12-08T08:54:28;2.70;99.90
53053;DHT22;38934;52.690;6.184;2022-12-08T08:56:53;2.70;99.90
53053;DHT22;38934;52.690;6.184;2022-12-08T08:59:19;2.70;99.90
53053;DHT22;38934;52.690;6.184;2022-12-08T09:01:45;2.70;99.90
53053;DHT22;38934;52.690;6.184;2022-12-08T09:04:10;2.70;99.90
53053;DHT22;38934;52.690;6.184;2022-12-08T09:06:36;2.80;99.90
53053;DHT22;38934;52.690;6.184;2022-12-08T09:09:02;2.80;99.90
53053;DHT22;38934;52.690;6.184;2022-12-08T09:11:28;2.80;99.90
53053;DHT22;38934;52.690;6.184;2022-12-08T09:13:54;2.80;99.90
53053;DHT22;38934;52.690;6.184;2022-12-08T09:16:21;2.80;99.90
53053;DHT22;38934;52.690;6.184;2022-12-08T09:18:46;2.90;99.90
53053;DHT22;38934;52.690;6.184;2022-12-08T09:21:18;2.90;99.90
53053;DHT22;38934;52.690;6.184;2022-12-08T09:23:52;2.90;99.90
53053;DHT22;38934;52.690;6.184;2022-12-08T09:26:18;2.90;99.90
53053;DHT22;38934;52.690;6.184;2022-12-08T09:28:47;2.90;99.90
53053;DHT22;38934;52.690;6.184;2022-12-08T09:31:15;3.00;99.90
53053;DHT22;38934;52.690;6.184;2022-12-08T09:33:41;3.00;99.90
53053;DHT22;38934;52.690;6.184;2022-12-08T09:36:07;3.00;99.90
53053;DHT22;38934;52.690;6.184;2022-12-08T09:38:33;3.00;99.90
53053;DHT22;38934;52.690;6.184;2022-12-08T09:41:01;3.10;99.90
53053;DHT22;38934;52.690;6.184;2022-12-08T09:43:45;3.10;99.90
53053;DHT22;38934;52.690;6.184;2022-12-08T09:46:17;3.10;99.90
53053;DHT22;38934;52.690;6.184;2022-12-08T09:48:54;3.10;99.90
53053;DHT22;38934;52.690;6.184;2022-12-08T09:51:26;3.10;99.90
53053;DHT22;38934;52.690;6.184;2022-12-08T09:53:58;3.20;99.90
53053;DHT22;38934;52.690;6.184;2022-12-08T09:56:31;3.20;99.90
53053;DHT22;38934;52.690;6.184;2022-12-08T09:59:03;3.20;99.90
53053;DHT22;38934;52.690;6.184;2022-12-08T10:01:33;3.20;99.90
53053;DHT22;38934;52.690;6.184;2022-12-08T10:03:59;3.20;99.90
53053;DHT22;38934;52.690;6.184;2022-12-08T10:06:46;3.20;99.90
53053;DHT22;38934;52.690;6.184;2022-12-08T10:12:25;3.30;99.90
53053;DHT22;38934;52.690;6.184;2022-12-08T10:15:01;3.20;99.90
53053;DHT22;38934;52.690;6.184;2022-12-08T10:17:34;3.10;99.90
53053;DHT22;38934;52.690;6.184;2022-12-08T10:20:26;3.10;99.90
53053;DHT22;38934;52.690;6.184;2022-12-08T10:25:49;3.10;99.90
53053;DHT22;38934;52.690;6.184;2022-12-08T10:28:14;3.10;99.90
53053;DHT22;38934;52.690;6.184;2022-12-08T10:30:40;3.20;99.90
53053;DHT22;38934;52.690;6.184;2022-12-08T10:33:16;3.20;99.90
53053;DHT22;38934;52.690;6.184;2022-12-08T10:35:48;3.20;99.90
53053;DHT22;38934;52.690;6.184;2022-12-08T10:38:32;3.20;99.90
53053;DHT22;38934;52.690;6.184;2022-12-08T10:41:04;3.30;99.90
53053;DHT22;38934;52.690;6.184;2022-12-08T10:43:31;3.30;99.90
53053;DHT22;38934;52.690;6.184;2022-12-08T10:46:15;3.70;99.90
53053;DHT22;38934;52.690;6.184;2022-12-08T10:48:53;3.30;99.90
53053;DHT22;38934;52.690;6.184;2022-12-08T10:53:57;3.30;99.90
53053;DHT22;38934;52.690;6.184;2022-12-08T10:56:28;3.30;99.90
53053;DHT22;38934;52.690;6.184;2022-12-08T10:59:05;3.40;99.90
53053;DHT22;38934;52.690;6.184;2022-12-08T11:01:38;3.40;99.90
53053;DHT22;38934;52.690;6.184;2022-12-08T11:04:30;3.40;99.90
53053;DHT22;38934;52.690;6.184;2022-12-08T11:06:57;3.40;99.90
53053;DHT22;38934;52.690;6.184;2022-12-08T11:09:30;3.40;99.90
53053;DHT22;38934;52.690;6.184;2022-12-08T11:12:07;3.30;99.90
53053;DHT22;38934;52.690;6.184;2022-12-08T11:14:47;3.30;99.90
53053;DHT22;38934;52.690;6.184;2022-12-08T11:19:53;3.30;99.90
53053;DHT22;38934;52.690;6.184;2022-12-08T11:24:44;3.30;99.90
53053;DHT22;38934;52.690;6.184;2022-12-08T11:27:10;3.40;99.90
53053;DHT22;38934;52.690;6.184;2022-12-08T11:29:36;3.40;99.90
53053;DHT22;38934;52.690;6.184;2022-12-08T11:32:05;3.50;99.90
53053;DHT22;38934;52.690;6.184;2022-12-08T11:34:45;3.50;99.90
53053;DHT22;38934;52.690;6.184;2022-12-08T11:37:20;3.60;99.90
53053;DHT22;38934;52.690;6.184;2022-12-08T11:39:50;3.60;99.90
53053;DHT22;38934;52.690;6.184;2022-12-08T11:42:19;3.60;99.90
53053;DHT22;38934;52.690;6.184;2022-12-08T11:45:10;3.70;99.90
53053;DHT22;38934;52.690;6.184;2022-12-08T11:47:48;3.70;99.90
53053;DHT22;38934;52.690;6.184;2022-12-08T11:53:16;3.90;99.90
53053;DHT22;38934;52.690;6.184;2022-12-08T11:55:49;4.00;99.90
53053;DHT22;38934;52.690;6.184;2022-12-08T11:58:27;4.10;99.90
53053;DHT22;38934;52.690;6.184;2022-12-08T12:00:55;4.20;99.90
53053;DHT22;38934;52.690;6.184;2022-12-08T12:03:38;4.30;99.90
53053;DHT22;38934;52.690;6.184;2022-12-08T12:06:22;4.40;99.90
53053;DHT22;38934;52.690;6.184;2022-12-08T12:09:12;4.50;99.90
53053;DHT22;38934;52.690;6.184;2022-12-08T12:17:50;4.50;99.90
53053;DHT22;38934;52.690;6.184;2022-12-08T12:20:31;4.50;99.90
53053;DHT22;38934;52.690;6.184;2022-12-08T12:26:00;4.30;99.90
53053;DHT22;38934;52.690;6.184;2022-12-08T12:28:39;4.20;99.90
53053;DHT22;38934;52.690;6.184;2022-12-08T12:31:08;4.10;99.90
53053;DHT22;38934;52.690;6.184;2022-12-08T12:33:35;4.20;99.90
53053;DHT22;38934;52.690;6.184;2022-12-08T12:36:06;4.20;99.90
53053;DHT22;38934;52.690;6.184;2022-12-08T12:38:45;4.20;99.90
53053;DHT22;38934;52.690;6.184;2022-12-08T12:44:36;4.20;99.90
53053;DHT22;38934;52.690;6.184;2022-12-08T12:47:07;4.20;99.90
53053;DHT22;38934;52.690;6.184;2022-12-08T12:57:15;4.30;99.90
53053;DHT22;38934;52.690;6.184;2022-12-08T12:59:46;4.30;99.90
53053;DHT22;38934;52.690;6.184;2022-12-08T13:08:01;4.40;99.90
53053;DHT22;38934;52.690;6.184;2022-12-08T13:10:35;4.40;99.90
53053;DHT22;38934;52.690;6.184;2022-12-08T13:15:48;4.50;99.90
53053;DHT22;38934;52.690;6.184;2022-12-08T13:18:47;4.40;99.90
53053;DHT22;38934;52.690;6.184;2022-12-08T13:21:15;4.40;99.90
53053;DHT22;38934;52.690;6.184;2022-12-08T13:24:33;4.40;99.90
53053;DHT22;38934;52.690;6.184;2022-12-08T13:29:32;4.30;99.90
53053;DHT22;38934;52.690;6.184;2022-12-08T13:39:45;4.00;99.90
53053;DHT22;38934;52.690;6.184;2022-12-08T13:47:23;3.90;99.90
53053;DHT22;38934;52.690;6.184;2022-12-08T13:50:15;3.80;99.90
53053;DHT22;38934;52.690;6.184;2022-12-08T13:53:15;3.80;99.90
53053;DHT22;38934;52.690;6.184;2022-12-08T13:55:44;3.70;99.90
53053;DHT22;38934;52.690;6.184;2022-12-08T13:58:19;3.70;99.90
53053;DHT22;38934;52.690;6.184;2022-12-08T14:01:17;3.60;99.90
53053;DHT22;38934;52.690;6.184;2022-12-08T14:03:50;3.60;99.90
53053;DHT22;38934;52.690;6.184;2022-12-08T14:06:29;3.60;99.90
53053;DHT22;38934;52.690;6.184;2022-12-08T14:08:58;3.50;99.90
53053;DHT22;38934;52.690;6.184;2022-12-08T14:11:36;3.50;99.90
53053;DHT22;38934;52.690;6.184;2022-12-08T14:14:18;3.40;99.90
53053;DHT22;38934;52.690;6.184;2022-12-08T14:16:52;3.40;99.90
53053;DHT22;38934;52.690;6.184;2022-12-08T14:19:21;3.40;99.90
53053;DHT22;38934;52.690;6.184;2022-12-08T14:22:00;3.30;99.90
53053;DHT22;38934;52.690;6.184;2022-12-08T14:24:27;3.30;99.90
53053;DHT22;38934;52.690;6.184;2022-12-08T14:26:57;3.30;99.90
53053;DHT22;38934;52.690;6.184;2022-12-08T14:29:43;3.20;99.90
53053;DHT22;38934;52.690;6.184;2022-12-08T14:32:32;3.20;99.90
53053;DHT22;38934;52.690;6.184;2022-12-08T14:37:46;3.20;99.90
53053;DHT22;38934;52.690;6.184;2022-12-08T14:40:24;4.40;99.90
53053;DHT22;38934;52.690;6.184;2022-12-08T14:48:43;3.20;99.90
53053;DHT22;38934;52.690;6.184;2022-12-08T14:53:44;3.20;99.90
53053;DHT22;38934;52.690;6.184;2022-12-08T14:56:18;3.20;99.90
53053;DHT22;38934;52.690;6.184;2022-12-08T14:58:45;3.20;99.90
53053;DHT22;38934;52.690;6.184;2022-12-08T15:01:17;3.20;99.90
53053;DHT22;38934;52.690;6.184;2022-12-08T15:03:46;3.80;99.90
53053;DHT22;38934;52.690;6.184;2022-12-08T15:06:12;3.20;99.90
53053;DHT22;38934;52.690;6.184;2022-12-08T15:08:54;3.30;99.90
53053;DHT22;38934;52.690;6.184;2022-12-08T15:13:47;3.20;99.90
53053;DHT22;38934;52.690;6.184;2022-12-08T15:21:29;3.20;99.90
53053;DHT22;38934;52.690;6.184;2022-12-08T15:23:58;3.20;99.90
53053;DHT22;38934;52.690;6.184;2022-12-08T15:26:25;3.20;99.90
53053;DHT22;38934;52.690;6.184;2022-12-08T15:28:51;3.20;99.90
53053;DHT22;38934;52.690;6.184;2022-12-08T15:31:17;3.20;99.90
53053;DHT22;38934;52.690;6.184;2022-12-08T15:33:43;3.20;99.90
53053;DHT22;38934;52.690;6.184;2022-12-08T15:36:10;3.20;99.90
53053;DHT22;38934;52.690;6.184;2022-12-08T15:38:36;3.10;99.90
53053;DHT22;38934;52.690;6.184;2022-12-08T15:41:02;3.10;99.90
53053;DHT22;38934;52.690;6.184;2022-12-08T15:43:30;3.10;99.90
53053;DHT22;38934;52.690;6.184;2022-12-08T15:45:56;3.10;99.90
53053;DHT22;38934;52.690;6.184;2022-12-08T15:48:24;3.10;99.90
53053;DHT22;38934;52.690;6.184;2022-12-08T15:50:51;3.10;99.90
53053;DHT22;38934;52.690;6.184;2022-12-08T15:53:17;3.10;99.90
53053;DHT22;38934;52.690;6.184;2022-12-08T15:55:43;3.10;99.90
53053;DHT22;38934;52.690;6.184;2022-12-08T15:58:23;3.10;99.90
53053;DHT22;38934;52.690;6.184;2022-12-08T16:00:52;3.10;99.90
53053;DHT22;38934;52.690;6.184;2022-12-08T16:05:45;3.10;99.90
53053;DHT22;38934;52.690;6.184;2022-12-08T16:08:16;3.10;99.90
53053;DHT22;38934;52.690;6.184;2022-12-08T16:10:42;3.10;99.90
53053;DHT22;38934;52.690;6.184;2022-12-08T16:13:14;3.10;99.90
53053;DHT22;38934;52.690;6.184;2022-12-08T16:15:59;3.00;99.90
53053;DHT22;38934;52.690;6.184;2022-12-08T16:18:28;3.10;99.90
53053;DHT22;38934;52.690;6.184;2022-12-08T16:20:54;3.50;99.90
53053;DHT22;38934;52.690;6.184;2022-12-08T16:23:19;3.10;99.90
53053;DHT22;38934;52.690;6.184;2022-12-08T16:25:45;3.10;99.90
53053;DHT22;38934;52.690;6.184;2022-12-08T16:28:11;3.10;99.90
53053;DHT22;38934;52.690;6.184;2022-12-08T16:30:37;3.00;99.90
53053;DHT22;38934;52.690;6.184;2022-12-08T16:33:03;2.80;99.90
53053;DHT22;38934;52.690;6.184;2022-12-08T16:35:29;2.80;99.90
53053;DHT22;38934;52.690;6.184;2022-12-08T16:37:55;2.70;99.90
53053;DHT22;38934;52.690;6.184;2022-12-08T16:40:21;2.60;99.90
53053;DHT22;38934;52.690;6.184;2022-12-08T16:42:47;2.60;99.90
53053;DHT22;38934;52.690;6.184;2022-12-08T16:45:21;2.60;99.90
53053;DHT22;38934;52.690;6.184;2022-12-08T16:47:49;2.60;99.90
53053;DHT22;38934;52.690;6.184;2022-12-08T16:50:24;2.60;99.90
53053;DHT22;38934;52.690;6.184;2022-12-08T16:52:59;2.70;99.90
53053;DHT22;38934;52.690;6.184;2022-12-08T16:55:26;2.60;99.90
53053;DHT22;38934;52.690;6.184;2022-12-08T16:57:52;2.60;99.90
53053;DHT22;38934;52.690;6.184;2022-12-08T17:00:20;2.60;99.90
53053;DHT22;38934;52.690;6.184;2022-12-08T17:02:47;2.50;99.90
53053;DHT22;38934;52.690;6.184;2022-12-08T17:05:14;2.50;99.90
53053;DHT22;38934;52.690;6.184;2022-12-08T17:07:42;2.40;99.90
53053;DHT22;38934;52.690;6.184;2022-12-08T17:10:09;2.40;99.90
53053;DHT22;38934;52.690;6.184;2022-12-08T17:12:35;2.40;99.90
53053;DHT22;38934;52.690;6.184;2022-12-08T17:15:02;2.40;99.90
53053;DHT22;38934;52.690;6.184;2022-12-08T17:17:28;2.50;99.90
53053;DHT22;38934;52.690;6.184;2022-12-08T17:19:53;2.50;99.90
53053;DHT22;38934;52.690;6.184;2022-12-08T17:22:19;2.50;99.90
53053;DHT22;38934;52.690;6.184;2022-12-08T17:24:45;2.60;99.90
53053;DHT22;38934;52.690;6.184;2022-12-08T17:27:10;2.60;99.90
53053;DHT22;38934;52.690;6.184;2022-12-08T17:29:36;2.60;99.90
53053;DHT22;38934;52.690;6.184;2022-12-08T17:32:02;2.60;99.90
53053;DHT22;38934;52.690;6.184;2022-12-08T17:34:27;3.10;99.90
53053;DHT22;38934;52.690;6.184;2022-12-08T17:36:53;2.60;99.90
53053;DHT22;38934;52.690;6.184;2022-12-08T17:39:19;2.60;99.90
53053;DHT22;38934;52.690;6.184;2022-12-08T17:41:45;2.70;99.90
53053;DHT22;38934;52.690;6.184;2022-12-08T17:44:13;2.60;99.90
53053;DHT22;38934;52.690;6.184;2022-12-08T17:46:40;2.60;99.90
53053;DHT22;38934;52.690;6.184;2022-12-08T17:49:10;2.70;99.90
53053;DHT22;38934;52.690;6.184;2022-12-08T17:51:36;2.70;99.90
53053;DHT22;38934;52.690;6.184;2022-12-08T17:54:03;2.70;99.90
53053;DHT22;38934;52.690;6.184;2022-12-08T17:56:29;2.70;99.90
53053;DHT22;38934;52.690;6.184;2022-12-08T17:58:54;2.70;99.90
53053;DHT22;38934;52.690;6.184;2022-12-08T18:01:21;2.70;99.90
53053;DHT22;38934;52.690;6.184;2022-12-08T18:03:47;2.70;99.90
53053;DHT22;38934;52.690;6.184;2022-12-08T18:06:12;2.80;99.90
53053;DHT22;38934;52.690;6.184;2022-12-08T18:08:38;2.70;99.90
53053;DHT22;38934;52.690;6.184;2022-12-08T18:11:10;2.80;99.90
53053;DHT22;38934;52.690;6.184;2022-12-08T18:13:36;2.80;99.90
53053;DHT22;38934;52.690;6.184;2022-12-08T18:16:02;2.80;99.90
53053;DHT22;38934;52.690;6.184;2022-12-08T18:18:28;2.80;99.90
53053;DHT22;38934;52.690;6.184;2022-12-08T18:20:53;2.80;99.90
53053;DHT22;38934;52.690;6.184;2022-12-08T18:23:19;2.80;99.90
53053;DHT22;38934;52.690;6.184;2022-12-08T18:25:45;2.80;99.90
53053;DHT22;38934;52.690;6.184;2022-12-08T18:28:11;2.90;99.90
53053;DHT22;38934;52.690;6.184;2022-12-08T18:30:38;2.90;99.90
53053;DHT22;38934;52.690;6.184;2022-12-08T18:33:05;2.90;99.90
53053;DHT22;38934;52.690;6.184;2022-12-08T18:35:32;2.90;99.90
53053;DHT22;38934;52.690;6.184;2022-12-08T18:37:57;2.90;99.90
53053;DHT22;38934;52.690;6.184;2022-12-08T18:40:25;2.90;99.90
53053;DHT22;38934;52.690;6.184;2022-12-08T18:42:51;2.90;99.90
53053;DHT22;38934;52.690;6.184;2022-12-08T18:45:16;2.80;99.90
53053;DHT22;38934;52.690;6.184;2022-12-08T18:47:47;2.90;99.90
53053;DHT22;38934;52.690;6.184;2022-12-08T18:50:12;2.80;99.90
53053;DHT22;38934;52.690;6.184;2022-12-08T18:52:38;2.80;99.90
53053;DHT22;38934;52.690;6.184;2022-12-08T18:55:04;2.90;99.90
53053;DHT22;38934;52.690;6.184;2022-12-08T18:57:30;2.90;99.90
53053;DHT22;38934;52.690;6.184;2022-12-08T18:59:56;2.90;99.90
53053;DHT22;38934;52.690;6.184;2022-12-08T19:02:21;2.90;99.90
53053;DHT22;38934;52.690;6.184;2022-12-08T19:04:47;2.90;99.90
53053;DHT22;38934;52.690;6.184;2022-12-08T19:07:14;2.90;99.90
53053;DHT22;38934;52.690;6.184;2022-12-08T19:09:42;2.90;99.90
53053;DHT22;38934;52.690;6.184;2022-12-08T19:12:08;2.80;99.90
53053;DHT22;38934;52.690;6.184;2022-12-08T19:14:37;2.90;99.90
53053;DHT22;38934;52.690;6.184;2022-12-08T19:17:03;2.90;99.90
53053;DHT22;38934;52.690;6.184;2022-12-08T19:19:28;2.90;99.90
53053;DHT22;38934;52.690;6.184;2022-12-08T19:21:55;2.90;99.90
53053;DHT22;38934;52.690;6.184;2022-12-08T19:24:21;2.80;99.90
53053;DHT22;38934;52.690;6.184;2022-12-08T19:26:47;2.80;99.90
53053;DHT22;38934;52.690;6.184;2022-12-08T19:29:12;2.90;99.90
53053;DHT22;38934;52.690;6.184;2022-12-08T19:31:39;2.80;99.90
53053;DHT22;38934;52.690;6.184;2022-12-08T19:34:04;2.80;99.90
53053;DHT22;38934;52.690;6.184;2022-12-08T19:36:30;2.90;99.90
53053;DHT22;38934;52.690;6.184;2022-12-08T19:39:00;2.90;99.90
53053;DHT22;38934;52.690;6.184;2022-12-08T19:41:45;2.90;99.90
53053;DHT22;38934;52.690;6.184;2022-12-08T19:44:29;2.90;99.90
53053;DHT22;38934;52.690;6.184;2022-12-08T19:47:14;2.90;99.90
53053;DHT22;38934;52.690;6.184;2022-12-08T19:49:39;2.80;99.90
53053;DHT22;38934;52.690;6.184;2022-12-08T19:52:05;2.80;99.90
53053;DHT22;38934;52.690;6.184;2022-12-08T19:54:32;2.80;99.90
53053;DHT22;38934;52.690;6.184;2022-12-08T19:56:58;2.80;99.90
53053;DHT22;38934;52.690;6.184;2022-12-08T19:59:23;2.80;99.90
53053;DHT22;38934;52.690;6.184;2022-12-08T20:01:52;2.80;99.90
53053;DHT22;38934;52.690;6.184;2022-12-08T20:04:20;2.80;99.90
53053;DHT22;38934;52.690;6.184;2022-12-08T20:06:46;2.80;99.90
53053;DHT22;38934;52.690;6.184;2022-12-08T20:09:13;2.80;99.90
53053;DHT22;38934;52.690;6.184;2022-12-08T20:11:39;2.80;99.90
53053;DHT22;38934;52.690;6.184;2022-12-08T20:14:06;2.80;99.90
53053;DHT22;38934;52.690;6.184;2022-12-08T20:16:31;3.00;99.90
53053;DHT22;38934;52.690;6.184;2022-12-08T20:18:57;2.80;99.90
53053;DHT22;38934;52.690;6.184;2022-12-08T20:21:23;3.00;99.90
53053;DHT22;38934;52.690;6.184;2022-12-08T20:23:49;2.80;99.90
53053;DHT22;38934;52.690;6.184;2022-12-08T20:26:17;2.80;99.90
53053;DHT22;38934;52.690;6.184;2022-12-08T20:28:43;2.80;99.90
53053;DHT22;38934;52.690;6.184;2022-12-08T20:31:20;2.80;99.90
53053;DHT22;38934;52.690;6.184;2022-12-08T20:33:47;3.00;99.90
53053;DHT22;38934;52.690;6.184;2022-12-08T20:36:15;2.80;99.90
53053;DHT22;38934;52.690;6.184;2022-12-08T20:38:45;2.80;99.90
53053;DHT22;38934;52.690;6.184;2022-12-08T20:41:11;2.70;99.90
53053;DHT22;38934;52.690;6.184;2022-12-08T20:43:36;2.70;99.90
53053;DHT22;38934;52.690;6.184;2022-12-08T20:46:06;2.70;99.90
53053;DHT22;38934;52.690;6.184;2022-12-08T20:48:32;2.70;99.90
53053;DHT22;38934;52.690;6.184;2022-12-08T20:50:58;2.70;99.90
53053;DHT22;38934;52.690;6.184;2022-12-08T20:53:23;2.70;99.90
53053;DHT22;38934;52.690;6.184;2022-12-08T20:55:49;2.70;99.90
53053;DHT22;38934;52.690;6.184;2022-12-08T20:58:14;2.70;99.90
53053;DHT22;38934;52.690;6.184;2022-12-08T21:00:40;2.70;99.90
53053;DHT22;38934;52.690;6.184;2022-12-08T21:03:05;2.70;99.90
53053;DHT22;38934;52.690;6.184;2022-12-08T21:05:31;2.70;99.90
53053;DHT22;38934;52.690;6.184;2022-12-08T21:07:59;2.70;99.90
53053;DHT22;38934;52.690;6.184;2022-12-08T21:10:25;2.70;99.90
53053;DHT22;38934;52.690;6.184;2022-12-08T21:12:51;2.70;99.90
53053;DHT22;38934;52.690;6.184;2022-12-08T21:15:16;2.70;99.90
53053;DHT22;38934;52.690;6.184;2022-12-08T21:17:42;2.70;99.90
53053;DHT22;38934;52.690;6.184;2022-12-08T21:20:08;2.70;99.90
53053;DHT22;38934;52.690;6.184;2022-12-08T21:22:34;2.70;99.90
53053;DHT22;38934;52.690;6.184;2022-12-08T21:24:59;2.70;99.90
53053;DHT22;38934;52.690;6.184;2022-12-08T21:27:25;2.80;99.90
53053;DHT22;38934;52.690;6.184;2022-12-08T21:29:51;2.70;99.90
53053;DHT22;38934;52.690;6.184;2022-12-08T21:32:16;2.80;99.90
53053;DHT22;38934;52.690;6.184;2022-12-08T21:34:42;2.80;99.90
53053;DHT22;38934;52.690;6.184;2022-12-08T21:37:08;2.80;99.90
53053;DHT22;38934;52.690;6.184;2022-12-08T21:39:34;2.80;99.90
53053;DHT22;38934;52.690;6.184;2022-12-08T21:41:59;2.80;99.90
53053;DHT22;38934;52.690;6.184;2022-12-08T21:44:43;2.80;99.90
53053;DHT22;38934;52.690;6.184;2022-12-08T21:47:09;2.80;99.90
53053;DHT22;38934;52.690;6.184;2022-12-08T21:49:34;2.80;99.90
53053;DHT22;38934;52.690;6.184;2022-12-08T21:52:00;2.80;99.90
53053;DHT22;38934;52.690;6.184;2022-12-08T21:54:25;2.80;99.90
53053;DHT22;38934;52.690;6.184;2022-12-08T21:56:51;2.80;99.90
53053;DHT22;38934;52.690;6.184;2022-12-08T21:59:17;2.90;99.90
53053;DHT22;38934;52.690;6.184;2022-12-08T22:01:43;2.80;99.90
53053;DHT22;38934;52.690;6.184;2022-12-08T22:04:10;2.90;99.90
53053;DHT22;38934;52.690;6.184;2022-12-08T22:06:36;2.80;99.90
53053;DHT22;38934;52.690;6.184;2022-12-08T22:09:02;2.80;99.90
53053;DHT22;38934;52.690;6.184;2022-12-08T22:11:28;2.80;99.90
53053;DHT22;38934;52.690;6.184;2022-12-08T22:13:53;2.90;99.90
53053;DHT22;38934;52.690;6.184;2022-12-08T22:16:19;2.90;99.90
53053;DHT22;38934;52.690;6.184;2022-12-08T22:18:44;2.80;99.90
53053;DHT22;38934;52.690;6.184;2022-12-08T22:21:13;2.90;99.90
53053;DHT22;38934;52.690;6.184;2022-12-08T22:23:39;2.90;99.90
53053;DHT22;38934;52.690;6.184;2022-12-08T22:26:05;2.90;99.90
53053;DHT22;38934;52.690;6.184;2022-12-08T22:28:33;2.90;99.90
53053;DHT22;38934;52.690;6.184;2022-12-08T22:30:59;2.90;99.90
53053;DHT22;38934;52.690;6.184;2022-12-08T22:33:27;3.30;99.90
53053;DHT22;38934;52.690;6.184;2022-12-08T22:35:57;2.90;99.90
53053;DHT22;38934;52.690;6.184;2022-12-08T22:38:23;2.90;99.90
53053;DHT22;38934;52.690;6.184;2022-12-08T22:40:49;2.90;99.90
53053;DHT22;38934;52.690;6.184;2022-12-08T22:43:14;3.80;99.90
53053;DHT22;38934;52.690;6.184;2022-12-08T22:45:40;2.90;99.90
53053;DHT22;38934;52.690;6.184;2022-12-08T22:48:06;2.80;99.90
53053;DHT22;38934;52.690;6.184;2022-12-08T22:50:31;2.80;99.90
53053;DHT22;38934;52.690;6.184;2022-12-08T22:52:57;2.70;99.90
53053;DHT22;38934;52.690;6.184;2022-12-08T22:55:22;2.70;99.90
53053;DHT22;38934;52.690;6.184;2022-12-08T22:57:48;2.70;99.90
53053;DHT22;38934;52.690;6.184;2022-12-08T23:00:14;2.70;99.90
53053;DHT22;38934;52.690;6.184;2022-12-08T23:02:40;2.70;99.90
53053;DHT22;38934;52.690;6.184;2022-12-08T23:05:06;2.70;99.90
53053;DHT22;38934;52.690;6.184;2022-12-08T23:07:32;2.70;99.90
53053;DHT22;38934;52.690;6.184;2022-12-08T23:09:57;2.70;99.90
53053;DHT22;38934;52.690;6.184;2022-12-08T23:12:23;2.70;99.90
53053;DHT22;38934;52.690;6.184;2022-12-08T23:14:48;2.70;99.90
53053;DHT22;38934;52.690;6.184;2022-12-08T23:17:14;2.70;99.90
53053;DHT22;38934;52.690;6.184;2022-12-08T23:19:39;2.70;99.90
53053;DHT22;38934;52.690;6.184;2022-12-08T23:22:05;2.70;99.90
53053;DHT22;38934;52.690;6.184;2022-12-08T23:24:30;2.70;99.90
53053;DHT22;38934;52.690;6.184;2022-12-08T23:26:56;2.80;99.90
53053;DHT22;38934;52.690;6.184;2022-12-08T23:29:22;2.80;99.90
53053;DHT22;38934;52.690;6.184;2022-12-08T23:31:47;2.80;99.90
53053;DHT22;38934;52.690;6.184;2022-12-08T23:34:13;2.70;99.90
53053;DHT22;38934;52.690;6.184;2022-12-08T23:36:38;2.80;99.90
53053;DHT22;38934;52.690;6.184;2022-12-08T23:39:04;2.80;99.90
53053;DHT22;38934;52.690;6.184;2022-12-08T23:41:30;2.70;99.90
53053;DHT22;38934;52.690;6.184;2022-12-08T23:43:57;2.70;99.90
53053;DHT22;38934;52.690;6.184;2022-12-08T23:46:22;2.80;99.90
53053;DHT22;38934;52.690;6.184;2022-12-08T23:48:49;2.70;99.90
53053;DHT22;38934;52.690;6.184;2022-12-08T23:51:15;2.80;99.90
53053;DHT22;38934;52.690;6.184;2022-12-08T23:53:41;2.80;99.90
53053;DHT22;38934;52.690;6.184;2022-12-08T23:56:10;2.80;99.90
53053;DHT22;38934;52.690;6.184;2022-12-08T23:58:36;2.80;99.90
